Time;durP1;ratioP1;P1;durP2;ratioP2;P2;SDS_P1;SDS_P2;PMS_P1;PMS_P2;Temp;Humidity;BMP_temperature;BMP_pressure;BME280_temperature;BME280_humidity;BME280_pressure;Samples;Min_cycle;Max_cycle;Signal;HPM_P1;HPM_P2
2023/12/19 00:01:09;;;;;;;13.27;7.45;;;;;;;7.18;67.36;102615.34;4905888;29;20051;-81
2023/12/19 00:03:36;;;;;;;14.30;7.95;;;;;;;7.14;67.65;102613.78;4910137;29;20147;-80
2023/12/19 00:06:05;;;;;;;13.85;8.30;;;;;;;7.30;67.72;102644.81;4928749;28;20501;-82
2023/12/19 00:08:36;;;;;;;13.70;7.90;;;;;;;6.71;67.98;102551.34;4923322;28;20400;-80
2023/12/19 00:11:03;;;;;;;10.00;7.32;;;;;;;7.02;68.80;102611.66;4892746;29;20051;-82
2023/12/19 00:13:30;;;;;;;13.18;7.72;;;;;;;6.84;67.48;102563.09;4898901;29;20456;-81
2023/12/19 00:15:57;;;;;;;14.60;7.93;;;;;;;7.11;67.10;102597.19;4892632;29;20054;-81
2023/12/19 00:18:26;;;;;;;15.52;7.65;;;;;;;7.15;68.29;102611.97;4891950;29;20047;-82
2023/12/19 00:20:53;;;;;;;18.00;9.73;;;;;;;7.22;67.99;102631.94;4899277;29;20136;-82
2023/12/19 00:23:20;;;;;;;14.80;8.60;;;;;;;7.28;66.94;102621.09;4920942;29;20411;-81
2023/12/19 00:25:47;;;;;;;12.27;8.10;;;;;;;7.39;66.23;102624.13;4898342;28;20059;-81
2023/12/19 00:28:14;;;;;;;11.32;7.35;;;;;;;7.28;67.54;102615.81;4900600;29;20533;-81
2023/12/19 00:30:41;;;;;;;136.82;25.42;;;;;;;7.29;66.31;102614.91;4898729;29;20043;-79
2023/12/19 00:33:12;;;;;;;51.42;14.82;;;;;;;7.36;66.20;102619.00;4919640;29;20058;-82
2023/12/19 00:35:40;;;;;;;57.75;14.07;;;;;;;7.09;66.48;102580.53;4899168;29;20058;-80
2023/12/19 00:38:07;;;;;;;66.40;14.75;;;;;;;7.24;67.27;102620.38;4892267;29;20126;-82
2023/12/19 00:40:36;;;;;;;49.15;15.02;;;;;;;6.92;67.49;102586.53;4908016;28;20471;-83
2023/12/19 00:43:13;;;;;;;47.25;12.77;;;;;;;6.95;68.16;102592.56;4899761;29;20055;-81
2023/12/19 00:45:40;;;;;;;42.33;12.27;;;;;;;6.76;67.75;102566.06;4911506;29;20059;-80
2023/12/19 00:48:07;;;;;;;39.33;11.93;;;;;;;6.80;68.36;102572.94;4918074;29;20106;-82
2023/12/19 00:50:34;;;;;;;25.48;10.82;;;;;;;6.96;67.60;102585.47;4905179;29;20055;-82
2023/12/19 00:53:01;;;;;;;21.60;9.35;;;;;;;6.92;68.33;102582.13;4905185;29;20043;-80
2023/12/19 00:55:28;;;;;;;22.23;9.68;;;;;;;6.74;69.06;102567.91;4902379;29;20392;-79
2023/12/19 00:57:55;;;;;;;19.00;8.80;;;;;;;6.79;68.93;102580.91;4872884;28;20325;-80
2023/12/19 01:00:23;;;;;;;16.10;8.45;;;;;;;6.75;69.15;102576.69;4911352;29;20453;-80
2023/12/19 01:02:50;;;;;;;17.00;9.07;;;;;;;6.64;69.66;102562.13;4918674;29;20526;-82
2023/12/19 01:05:17;;;;;;;19.42;9.27;;;;;;;6.48;69.60;102550.50;4904097;28;20334;-81
2023/12/19 01:07:44;;;;;;;12.40;8.10;;;;;;;6.55;69.58;102551.97;4894843;29;20452;-82
2023/12/19 01:10:10;;;;;;;12.38;8.23;;;;;;;6.58;70.49;102567.69;4918307;28;20436;-81
2023/12/19 01:12:40;;;;;;;15.18;8.48;;;;;;;6.64;70.52;102579.75;4901748;29;20558;-80
2023/12/19 01:15:10;;;;;;;17.48;8.98;;;;;;;6.89;69.30;102598.06;4909300;29;20472;-80
2023/12/19 01:17:40;;;;;;;11.05;7.53;;;;;;;6.59;69.01;102558.84;4903079;29;20482;-81
2023/12/19 01:20:09;;;;;;;12.02;8.18;;;;;;;6.72;68.82;102580.28;4897793;29;20419;-82
2023/12/19 01:22:37;;;;;;;14.23;9.30;;;;;;;6.81;68.64;102597.53;4920046;29;20065;-79
2023/12/19 01:25:04;;;;;;;14.50;7.72;;;;;;;6.71;68.58;102573.31;4896074;29;20050;-80
2023/12/19 01:27:31;;;;;;;11.73;8.07;;;;;;;6.79;68.76;102592.31;4913082;28;20049;-81
2023/12/19 01:29:58;;;;;;;14.45;6.90;;;;;;;6.68;68.89;102584.00;4900705;29;20054;-81
2023/12/19 01:32:25;;;;;;;12.30;7.30;;;;;;;6.67;68.57;102586.69;4898791;29;20051;-81
2023/12/19 01:34:53;;;;;;;10.40;7.45;;;;;;;6.70;68.72;102592.72;4895862;29;20051;-80
2023/12/19 01:37:22;;;;;;;12.55;7.53;;;;;;;6.55;69.57;102562.53;4914429;29;20138;-82
2023/12/19 01:39:50;;;;;;;13.00;7.40;;;;;;;6.67;69.19;102584.06;4902511;29;20415;-82
2023/12/19 01:42:24;;;;;;;12.48;6.88;;;;;;;6.53;68.71;102571.41;4908227;29;20062;-83
2023/12/19 01:45:10;;;;;;;11.73;6.72;;;;;;;6.60;68.93;102580.78;4915633;29;20051;-81
2023/12/19 01:47:40;;;;;;;10.82;6.45;;;;;;;5.99;69.82;102468.06;4917327;29;20051;-81
2023/12/19 01:50:08;;;;;;;12.43;7.22;;;;;;;6.59;69.59;102573.81;4917712;29;20700;-82
2023/12/19 01:52:58;;;;;;;12.82;7.38;;;;;;;6.44;69.14;102538.34;4916137;29;20066;-81
2023/12/19 01:55:27;;;;;;;11.50;6.50;;;;;;;5.89;68.67;102424.50;4902916;29;20357;-80
2023/12/19 01:58:06;;;;;;;13.55;6.93;;;;;;;6.69;69.20;102555.81;4921667;28;20051;-83
2023/12/19 02:00:35;;;;;;;12.30;6.82;;;;;;;6.69;69.63;102563.75;4894580;29;20510;-81
2023/12/19 02:03:04;;;;;;;16.02;7.22;;;;;;;6.51;69.50;102537.19;4897151;29;20146;-80
2023/12/19 02:05:36;;;;;;;8.65;6.05;;;;;;;6.61;68.90;102564.06;4901796;29;20075;-80
2023/12/19 02:08:04;;;;;;;9.77;5.93;;;;;;;6.38;69.55;102518.38;4918112;29;20488;-80
2023/12/19 02:10:31;;;;;;;12.80;7.00;;;;;;;6.61;69.57;102554.34;4908906;28;20047;-80
2023/12/19 02:12:59;;;;;;;8.00;6.25;;;;;;;6.09;69.81;102464.16;4921191;29;21166;-81
2023/12/19 02:15:26;;;;;;;13.70;6.15;;;;;;;6.49;68.64;102520.56;4905714;29;20055;-79
2023/12/19 02:17:57;;;;;;;10.88;6.53;;;;;;;6.73;67.04;102531.03;4894763;29;20542;-82
2023/12/19 02:20:24;;;;;;;10.18;5.72;;;;;;;6.67;66.90;102507.50;4927188;29;20182;-82
2023/12/19 02:22:52;;;;;;;15.65;6.47;;;;;;;6.83;68.04;102545.53;4883632;29;20051;-81
2023/12/19 02:25:22;;;;;;;9.80;5.45;;;;;;;6.54;68.88;102502.75;4893170;29;20062;-83
2023/12/19 02:27:49;;;;;;;8.80;5.57;;;;;;;6.63;69.45;102541.97;4906182;29;20054;-82
2023/12/19 02:30:16;;;;;;;13.25;6.07;;;;;;;6.52;69.73;102525.69;4906163;29;20280;-81
2023/12/19 02:32:45;;;;;;;16.80;5.97;;;;;;;6.56;69.09;102543.13;4901700;29;20054;-82
2023/12/19 02:35:13;;;;;;;9.32;5.53;;;;;;;6.62;68.80;102534.09;4905555;29;20047;-81
2023/12/19 02:37:41;;;;;;;11.32;5.90;;;;;;;6.52;69.09;102525.69;4879781;29;20051;-82
2023/12/19 02:40:09;;;;;;;14.07;6.57;;;;;;;6.45;69.49;102512.81;4897283;29;20329;-81
2023/12/19 02:42:44;;;;;;;8.77;5.75;;;;;;;6.42;70.14;102512.03;4907049;29;20070;-83
2023/12/19 02:45:14;;;;;;;7.57;5.13;;;;;;;6.39;70.27;102513.94;4915637;29;20134;-83
2023/12/19 02:47:43;;;;;;;8.45;5.30;;;;;;;6.44;70.20;102527.81;4900297;28;20102;-82
2023/12/19 02:50:11;;;;;;;10.77;6.32;;;;;;;6.50;69.63;102532.81;4906244;29;20475;-83
2023/12/19 02:52:38;;;;;;;9.95;5.65;;;;;;;6.37;68.48;102489.41;4899870;29;20043;-80
2023/12/19 02:55:06;;;;;;;8.25;5.43;;;;;;;6.58;68.79;102516.69;4904034;29;20055;-80
2023/12/19 02:57:32;;;;;;;8.55;5.90;;;;;;;6.50;68.74;102506.44;4905176;29;20312;-81
2023/12/19 02:59:59;;;;;;;12.43;5.75;;;;;;;6.63;68.28;102512.06;4906433;29;20055;-81
2023/12/19 03:02:28;;;;;;;7.70;5.75;;;;;;;6.71;67.71;102519.66;4911696;29;20062;-82
2023/12/19 03:04:55;;;;;;;8.25;5.55;;;;;;;6.59;68.87;102505.19;4916620;29;20078;-80
2023/12/19 03:07:23;;;;;;;11.52;5.80;;;;;;;6.54;68.77;102497.47;4920947;29;20051;-82
2023/12/19 03:09:50;;;;;;;8.80;6.45;;;;;;;6.55;68.68;102496.56;4911941;28;20055;-81
2023/12/19 03:12:17;;;;;;;10.18;6.05;;;;;;;6.75;67.27;102513.34;4904348;29;20083;-81
2023/12/19 03:14:43;;;;;;;11.23;7.28;;;;;;;6.89;66.42;102518.00;4897323;29;20111;-81
2023/12/19 03:17:12;;;;;;;10.35;5.70;;;;;;;6.82;67.03;102517.41;4903765;29;20087;-81
2023/12/19 03:19:39;;;;;;;10.77;5.97;;;;;;;6.74;67.18;102508.97;4902435;29;20059;-82
2023/12/19 03:22:09;;;;;;;11.40;6.57;;;;;;;6.75;66.70;102515.97;4881455;29;20054;-83
2023/12/19 03:24:41;;;;;;;8.90;5.85;;;;;;;6.61;67.63;102493.66;4859792;29;20578;-82
2023/12/19 03:27:09;;;;;;;11.70;5.45;;;;;;;6.43;68.44;102473.31;4909033;28;20062;-81
2023/12/19 03:29:36;;;;;;;11.95;6.22;;;;;;;6.59;68.49;102500.78;4915761;28;20049;-83
2023/12/19 03:32:03;;;;;;;9.48;6.90;;;;;;;6.46;68.29;102491.66;4916104;29;20468;-82
2023/12/19 03:34:30;;;;;;;14.85;6.22;;;;;;;6.67;67.55;102503.09;4909985;29;20214;-83
2023/12/19 03:36:57;;;;;;;12.43;7.10;;;;;;;6.32;67.73;102444.75;4920858;28;20075;-81
2023/12/19 03:39:27;;;;;;;15.95;6.82;;;;;;;6.48;67.82;102474.00;4915852;29;20117;-81
2023/12/19 03:41:54;;;;;;;15.95;8.63;;;;;;;6.54;66.88;102454.41;4895666;29;20075;-81
2023/12/19 03:44:41;;;;;;;9.85;5.88;;;;;;;6.84;66.37;102495.34;4901567;29;20393;-81
2023/12/19 03:47:12;;;;;;;14.35;6.93;;;;;;;6.90;65.96;102486.28;4896162;29;20086;-81
2023/12/19 03:49:38;;;;;;;11.48;6.20;;;;;;;6.75;65.88;102452.63;4881831;29;20055;-80
2023/12/19 03:52:08;;;;;;;11.25;5.88;;;;;;;6.75;64.93;102439.44;4890525;29;20087;-82
2023/12/19 03:54:35;;;;;;;11.68;6.15;;;;;;;6.93;64.78;102457.09;4895406;29;20047;-83
2023/12/19 03:57:02;;;;;;;12.23;6.22;;;;;;;7.06;65.08;102471.47;4899571;28;20051;-81
2023/12/19 03:59:29;;;;;;;10.20;6.15;;;;;;;6.98;63.98;102439.25;4899954;29;20587;-83
2023/12/19 04:01:58;;;;;;;11.40;6.53;;;;;;;7.15;64.29;102441.13;4908052;29;20388;-81
2023/12/19 04:04:26;;;;;;;9.55;6.05;;;;;;;7.26;63.95;102453.88;4906565;29;20051;-81
2023/12/19 04:06:54;;;;;;;9.65;6.32;;;;;;;7.06;64.49;102447.72;4908613;28;20079;-80
2023/12/19 04:09:23;;;;;;;12.85;5.72;;;;;;;6.52;65.10;102370.00;4924233;29;20543;-81
2023/12/19 04:11:51;;;;;;;10.43;6.68;;;;;;;6.88;65.47;102427.41;4905855;29;20048;-81
2023/12/19 04:14:26;;;;;;;16.95;5.57;;;;;;;7.12;64.50;102440.44;4888300;29;20196;-82
2023/12/19 04:17:01;;;;;;;12.77;6.38;;;;;;;6.70;65.18;102394.75;4843614;29;20048;-82
2023/12/19 04:19:28;;;;;;;12.77;7.15;;;;;;;6.78;66.03;102424.31;4852745;29;20572;-80
2023/12/19 04:21:57;;;;;;;14.05;6.18;;;;;;;6.80;66.11;102437.44;4890792;29;20500;-81
2023/12/19 04:24:26;;;;;;;11.93;6.65;;;;;;;6.75;66.60;102432.38;4896978;29;20126;-82
2023/12/19 04:26:54;;;;;;;14.50;6.75;;;;;;;6.68;66.18;102422.16;4906002;28;20047;-82
2023/12/19 04:29:22;;;;;;;11.70;5.80;;;;;;;6.74;66.27;102421.88;4876231;29;20409;-82
2023/12/19 04:31:50;;;;;;;15.13;7.28;;;;;;;6.45;66.25;102376.47;4914330;29;20226;-83
2023/12/19 04:34:17;;;;;;;14.20;7.18;;;;;;;6.75;67.15;102420.97;4916248;28;20047;-81
2023/12/19 04:36:44;;;;;;;14.07;7.13;;;;;;;6.68;65.45;102387.84;4898318;29;20052;-81
2023/12/19 04:39:11;;;;;;;21.90;7.32;;;;;;;6.68;66.64;102415.09;4891278;29;20845;-82
2023/12/19 04:41:38;;;;;;;14.75;6.97;;;;;;;6.51;66.33;102397.34;4899879;29;20256;-81
2023/12/19 04:44:05;;;;;;;19.67;6.88;;;;;;;6.61;66.83;102396.00;4899164;29;20136;-80
2023/12/19 04:46:32;;;;;;;12.63;6.72;;;;;;;6.46;65.96;102350.94;4902253;29;20081;-81
2023/12/19 04:48:59;;;;;;;15.68;6.85;;;;;;;6.59;66.35;102379.38;4880309;29;20242;-81
2023/12/19 04:51:26;;;;;;;14.38;7.38;;;;;;;6.69;67.20;102415.94;4900698;29;20059;-80
2023/12/19 04:53:53;;;;;;;15.20;7.10;;;;;;;6.20;67.14;102356.44;4893309;29;20051;-79
2023/12/19 04:56:23;;;;;;;10.30;6.97;;;;;;;6.52;67.25;102414.88;4902915;28;20054;-83
2023/12/19 04:58:50;;;;;;;10.98;6.07;;;;;;;6.17;67.31;102340.75;4920580;29;20158;-80
2023/12/19 05:01:17;;;;;;;14.30;7.22;;;;;;;6.64;66.56;102397.66;4916966;29;20082;-80
2023/12/19 05:03:44;;;;;;;18.92;6.75;;;;;;;6.80;66.19;102408.41;4918688;28;20110;-81
2023/12/19 05:06:17;;;;;;;11.80;6.50;;;;;;;6.61;67.22;102409.19;4932972;29;20051;-80
2023/12/19 05:08:45;;;;;;;14.70;7.10;;;;;;;6.54;67.63;102413.03;4924634;29;20047;-81
2023/12/19 05:11:12;;;;;;;24.20;6.95;;;;;;;6.46;67.46;102404.59;4889200;29;20524;-80
2023/12/19 05:13:40;;;;;;;14.80;6.32;;;;;;;6.02;67.98;102338.78;4863593;29;20511;-81
2023/12/19 05:16:12;;;;;;;11.13;6.78;;;;;;;6.24;68.12;102383.56;4902747;29;20451;-81
2023/12/19 05:18:46;;;;;;;12.00;6.70;;;;;;;6.17;67.48;102372.41;4870046;29;20110;-82
2023/12/19 05:21:26;;;;;;;13.30;6.15;;;;;;;6.27;67.70;102393.13;4856370;29;20193;-82
2023/12/19 05:23:54;;;;;;;9.73;6.07;;;;;;;6.36;67.29;102414.69;4882943;29;20083;-81
2023/12/19 05:26:22;;;;;;;14.23;5.35;;;;;;;6.34;68.08;102416.53;4925160;28;20476;-83
2023/12/19 05:28:54;;;;;;;21.73;6.95;;;;;;;6.10;67.64;102386.75;4919067;28;20507;-83
2023/12/19 05:31:22;;;;;;;23.27;7.53;;;;;;;6.19;67.62;102402.19;4913329;29;20492;-82
2023/12/19 05:33:52;;;;;;;15.43;6.65;;;;;;;6.37;68.43;102426.09;4888336;29;20087;-84
2023/12/19 05:36:20;;;;;;;23.85;7.35;;;;;;;5.98;68.34;102368.81;4894823;29;20428;-81
2023/12/19 05:38:47;;;;;;;14.52;6.63;;;;;;;6.31;68.38;102428.97;4907671;29;20677;-80
2023/12/19 05:41:19;;;;;;;15.23;6.95;;;;;;;6.29;68.99;102417.66;4879394;29;20051;-81
2023/12/19 05:43:59;;;;;;;12.70;5.65;;;;;;;6.53;67.95;102419.25;4859516;29;20047;-81
2023/12/19 05:46:28;;;;;;;11.75;6.25;;;;;;;6.56;67.36;102431.44;4868647;29;20051;-80
2023/12/19 05:48:55;;;;;;;15.15;6.20;;;;;;;6.33;68.45;102400.75;4907729;29;20070;-80
2023/12/19 05:51:25;;;;;;;11.50;6.30;;;;;;;6.34;67.66;102410.41;4904142;29;20052;-80
2023/12/19 05:53:51;;;;;;;15.05;5.95;;;;;;;6.26;68.29;102388.75;4898548;29;20370;-82
2023/12/19 05:56:18;;;;;;;14.20;6.80;;;;;;;6.07;68.60;102384.25;4862895;28;20066;-81
2023/12/19 05:58:46;;;;;;;15.80;6.75;;;;;;;6.44;68.16;102424.91;4928018;28;20247;-80
2023/12/19 06:01:13;;;;;;;13.50;6.05;;;;;;;6.29;68.69;102391.28;4917783;29;20055;-83
2023/12/19 06:03:44;;;;;;;20.63;7.10;;;;;;;6.28;68.52;102402.72;4920886;29;20364;-82
2023/12/19 06:06:14;;;;;;;50.38;34.30;;;;;;;6.11;69.05;102393.72;4917070;29;20333;-81
2023/12/19 06:08:45;;;;;;;25.90;17.80;;;;;;;5.91;69.14;102359.41;4938063;28;20047;-79
2023/12/19 06:11:12;;;;;;;22.30;10.93;;;;;;;6.17;69.12;102430.41;4903314;29;20132;-82
2023/12/19 06:13:42;;;;;;;17.02;9.05;;;;;;;6.19;69.55;102430.38;4916739;29;20256;-80
2023/12/19 06:16:09;;;;;;;17.50;7.93;;;;;;;6.33;69.10;102453.50;4881088;29;20056;-82
2023/12/19 06:18:36;;;;;;;16.40;7.60;;;;;;;6.36;69.03;102440.19;4875844;29;20141;-80
2023/12/19 06:21:03;;;;;;;19.05;8.02;;;;;;;6.35;68.77;102423.50;4891187;29;20051;-82
2023/12/19 06:23:32;;;;;;;10.75;6.68;;;;;;;6.26;70.19;102417.75;4881085;29;20056;-83
2023/12/19 06:26:01;;;;;;;14.48;6.75;;;;;;;6.38;69.24;102443.63;4887953;29;20115;-83
2023/12/19 06:28:32;;;;;;;15.90;7.10;;;;;;;6.35;69.26;102438.47;4881820;29;20112;-83
2023/12/19 06:30:59;;;;;;;17.83;6.50;;;;;;;6.32;69.93;102431.56;4878741;29;20355;-82
2023/12/19 06:33:26;;;;;;;15.35;6.55;;;;;;;6.31;69.18;102426.34;4897040;29;20076;-83
2023/12/19 06:35:53;;;;;;;21.25;7.85;;;;;;;6.42;69.00;102435.50;4888355;29;20427;-83
2023/12/19 06:38:20;;;;;;;33.88;10.77;;;;;;;6.32;68.44;102405.19;4912882;29;20060;-81
2023/12/19 06:40:47;;;;;;;26.23;8.40;;;;;;;6.34;68.56;102405.97;4922375;28;20119;-81
2023/12/19 06:43:13;;;;;;;36.20;10.50;;;;;;;6.42;69.33;102427.59;4885018;29;20418;-82
2023/12/19 06:45:41;;;;;;;28.00;8.13;;;;;;;6.17;69.95;102377.66;4898434;29;20059;-84
2023/12/19 06:48:08;;;;;;;40.47;9.70;;;;;;;6.39;69.68;102426.88;4899360;29;20044;-82
2023/12/19 06:50:39;;;;;;;31.30;9.63;;;;;;;5.84;69.55;102313.13;4895367;29;20071;-83
2023/12/19 06:53:06;;;;;;;23.65;8.75;;;;;;;6.41;69.73;102414.50;4901249;29;20048;-82
2023/12/19 06:55:32;;;;;;;22.45;9.80;;;;;;;6.31;69.14;102405.22;4905635;29;20412;-83
2023/12/19 06:58:01;;;;;;;42.35;10.95;;;;;;;6.43;69.04;102407.34;4909303;29;20805;-82
2023/12/19 07:00:29;;;;;;;24.65;10.00;;;;;;;6.54;68.64;102415.66;4907512;29;20064;-83
2023/12/19 07:02:56;;;;;;;25.90;9.68;;;;;;;6.07;69.60;102349.97;4900977;29;20107;-82
2023/12/19 07:05:23;;;;;;;33.05;9.82;;;;;;;6.48;69.26;102429.13;4926618;28;20493;-82
2023/12/19 07:07:51;;;;;;;31.40;9.70;;;;;;;6.56;68.61;102432.28;4887008;29;20048;-85
2023/12/19 07:10:19;;;;;;;25.48;12.00;;;;;;;6.47;68.43;102403.66;4884189;29;20455;-83
2023/12/19 07:12:46;;;;;;;31.42;12.48;;;;;;;6.44;68.50;102406.44;4902809;29;20044;-84
2023/12/19 07:15:14;;;;;;;23.27;10.80;;;;;;;6.53;68.24;102415.72;4893240;29;20142;-82
2023/12/19 07:17:43;;;;;;;24.52;10.15;;;;;;;6.67;68.10;102434.47;4890264;29;20055;-82
2023/12/19 07:20:10;;;;;;;28.52;9.85;;;;;;;6.25;69.30;102374.69;4901676;29;20550;-81
2023/12/19 07:22:37;;;;;;;33.08;10.48;;;;;;;6.37;68.06;102389.16;4903049;29;20118;-81
2023/12/19 07:25:04;;;;;;;25.27;10.68;;;;;;;6.57;67.65;102415.53;4884399;29;20150;-82
2023/12/19 07:27:31;;;;;;;17.80;9.85;;;;;;;6.67;67.99;102413.34;4855292;29;20358;-84
2023/12/19 07:30:05;;;;;;;28.50;13.50;;;;;;;6.73;68.81;102422.81;4887407;29;20050;-81
2023/12/19 07:32:32;;;;;;;34.47;12.35;;;;;;;6.61;67.69;102401.28;4887150;29;20846;-81
2023/12/19 07:35:01;;;;;;;24.98;11.80;;;;;;;6.68;69.24;102419.50;4890119;29;20039;-82
2023/12/19 07:37:28;;;;;;;28.52;12.15;;;;;;;6.70;68.57;102407.06;4868856;29;20587;-81
2023/12/19 07:39:55;;;;;;;31.50;11.20;;;;;;;6.82;68.19;102407.41;4845615;29;20508;-81
2023/12/19 07:42:22;;;;;;;52.72;29.13;;;;;;;6.73;68.08;102383.22;4888691;29;20457;-80
2023/12/19 07:44:49;;;;;;;49.47;18.40;;;;;;;6.23;69.11;102310.59;4874093;29;20051;-82
2023/12/19 07:47:18;;;;;;;37.47;13.35;;;;;;;6.29;68.79;102312.16;4905606;29;20319;-81
2023/12/19 07:49:45;;;;;;;34.75;15.13;;;;;;;6.55;68.14;102356.72;4882504;29;20271;-82
2023/12/19 07:52:13;;;;;;;35.97;14.07;;;;;;;6.90;68.34;102391.22;4861399;29;20520;-80
2023/12/19 07:54:41;;;;;;;33.28;14.15;;;;;;;6.95;67.82;102361.97;4866895;29;20052;-81
2023/12/19 07:57:10;;;;;;;29.38;12.93;;;;;;;6.96;68.38;102367.16;4881801;29;20916;-81
2023/12/19 07:59:37;;;;;;;31.77;12.55;;;;;;;6.94;68.98;102369.06;4863940;29;20052;-81
2023/12/19 08:02:05;;;;;;;38.28;15.05;;;;;;;6.98;68.46;102375.88;4883190;29;20408;-80
2023/12/19 08:04:41;;;;;;;33.03;13.38;;;;;;;7.00;68.42;102376.69;4860726;29;20352;-82
2023/12/19 08:07:17;;;;;;;28.95;12.18;;;;;;;6.76;68.12;102346.09;4870127;29;20128;-80
2023/12/19 08:09:44;;;;;;;31.92;12.27;;;;;;;6.90;69.71;102364.81;4921941;29;20060;-80
2023/12/19 08:12:11;;;;;;;31.45;11.20;;;;;;;6.88;70.17;102357.91;4906854;29;20075;-79
2023/12/19 08:14:38;;;;;;;28.30;12.75;;;;;;;6.83;69.91;102344.91;4901848;29;20204;-82
2023/12/19 08:17:05;;;;;;;28.75;13.57;;;;;;;7.09;69.46;102378.06;4896683;29;20059;-79
2023/12/19 08:19:38;;;;;;;30.10;12.07;;;;;;;7.14;69.80;102373.41;4860665;29;20055;-82
2023/12/19 08:22:11;;;;;;;30.10;12.02;;;;;;;7.21;70.01;102379.28;4840472;29;20146;-81
2023/12/19 08:24:38;;;;;;;23.48;11.43;;;;;;;7.07;69.76;102341.13;4884475;29;20048;-81
2023/12/19 08:27:05;;;;;;;38.28;12.00;;;;;;;7.23;69.77;102364.19;4856690;29;20126;-79
2023/12/19 08:29:32;;;;;;;29.63;14.15;;;;;;;7.31;69.72;102372.63;4884744;29;20048;-80
2023/12/19 08:31:58;;;;;;;30.80;14.80;;;;;;;7.14;69.33;102332.94;4908106;29;20537;-81
2023/12/19 08:34:25;;;;;;;31.52;13.82;;;;;;;7.36;69.17;102360.06;4887650;29;20525;-79
2023/12/19 08:36:52;;;;;;;25.83;14.15;;;;;;;7.11;68.73;102307.50;4882148;29;20499;-80
2023/12/19 08:39:19;;;;;;;33.78;14.07;;;;;;;7.42;68.88;102348.31;4889098;29;20407;-79
2023/12/19 08:41:46;;;;;;;28.25;10.75;;;;;;;7.62;67.39;102368.50;4894305;29;20135;-82
2023/12/19 08:44:15;;;;;;;31.00;15.15;;;;;;;7.74;66.20;102359.97;4884433;29;20150;-80
2023/12/19 08:46:42;;;;;;;22.77;12.68;;;;;;;7.36;65.23;102275.50;4879381;29;20568;-79
2023/12/19 08:49:09;;;;;;;24.83;11.10;;;;;;;7.86;65.09;102353.22;4877444;29;20079;-80
2023/12/19 08:51:45;;;;;;;23.27;10.63;;;;;;;7.99;65.17;102346.41;4881353;29;20052;-81
2023/12/19 08:54:12;;;;;;;17.67;8.45;;;;;;;8.03;64.18;102355.88;4882833;29;20102;-78
2023/12/19 08:56:39;;;;;;;15.15;7.70;;;;;;;8.05;64.31;102353.19;4881432;29;20117;-78
2023/12/19 08:59:06;;;;;;;18.90;7.15;;;;;;;8.10;63.84;102335.28;4900990;29;20039;-80
2023/12/19 09:01:37;;;;;;;13.82;5.88;;;;;;;8.19;63.53;102328.66;4874250;28;20518;-80
2023/12/19 09:04:13;;;;;;;13.07;6.60;;;;;;;8.34;63.45;102352.53;4913602;28;20399;-82
2023/12/19 09:06:42;;;;;;;20.13;6.88;;;;;;;8.44;63.33;102341.50;4864708;29;20055;-82
2023/12/19 09:09:11;;;;;;;12.50;5.88;;;;;;;8.48;62.04;102327.19;4873475;29;20055;-81
2023/12/19 09:11:39;;;;;;;6.47;3.90;;;;;;;8.40;62.11;102289.66;4905652;29;20530;-81
2023/12/19 09:14:12;;;;;;;5.45;4.00;;;;;;;8.68;60.78;102310.25;4901156;29;20058;-79
2023/12/19 09:16:42;;;;;;;10.45;3.97;;;;;;;8.88;60.09;102335.63;4916273;29;20047;-81
2023/12/19 09:19:12;;;;;;;8.98;4.20;;;;;;;8.51;60.11;102255.56;4860572;29;20050;-83
2023/12/19 09:21:39;;;;;;;10.55;3.63;;;;;;;8.90;60.21;102294.03;4900924;29;20445;-82
2023/12/19 09:24:06;;;;;;;8.60;3.33;;;;;;;8.99;59.29;102288.25;4914769;29;20530;-82
2023/12/19 09:26:33;;;;;;;7.10;3.67;;;;;;;8.72;60.03;102237.66;4922310;28;20087;-83
2023/12/19 09:29:00;;;;;;;6.20;3.35;;;;;;;9.36;59.72;102310.03;4860586;29;20502;-81
2023/12/19 09:31:27;;;;;;;6.68;3.33;;;;;;;9.49;59.83;102304.88;4919790;28;20055;-81
2023/12/19 09:33:59;;;;;;;5.38;3.10;;;;;;;9.68;58.86;102292.25;4876704;29;20522;-81
2023/12/19 09:36:34;;;;;;;6.00;3.22;;;;;;;9.89;58.36;102294.63;4877536;29;20103;-83
2023/12/19 09:39:15;;;;;;;7.72;3.28;;;;;;;10.00;57.61;102271.81;4934281;28;20061;-82
2023/12/19 09:41:43;;;;;;;5.35;2.67;;;;;;;10.21;57.14;102284.72;4915144;29;20101;-82
2023/12/19 09:44:10;;;;;;;3.70;2.28;;;;;;;10.32;57.32;102287.63;4909573;29;20102;-83
2023/12/19 09:46:51;;;;;;;5.35;2.65;;;;;;;10.41;56.41;102270.25;4903902;29;20073;-82
2023/12/19 09:49:25;;;;;;;5.15;2.08;;;;;;;10.19;56.06;102218.44;4918860;29;20043;-82
2023/12/19 09:51:57;;;;;;;7.40;3.05;;;;;;;10.41;55.39;102238.41;4903440;29;20404;-81
2023/12/19 09:54:24;;;;;;;;;;;;;;;10.48;54.57;102248.56;4901267;29;20710;-81
2023/12/19 09:56:54;;;;;;;9.73;4.07;;;;;;;10.48;55.59;102232.63;4873859;29;19922;-81
2023/12/19 09:59:21;;;;;;;7.30;3.30;;;;;;;10.60;54.33;102232.78;4915262;29;20126;-80
2023/12/19 10:01:48;;;;;;;4.65;3.00;;;;;;;10.61;53.10;102207.97;4896414;29;20131;-81
2023/12/19 10:04:16;;;;;;;5.95;3.42;;;;;;;10.69;53.25;102216.28;4897631;29;20058;-82
2023/12/19 10:07:00;;;;;;;5.30;3.25;;;;;;;10.64;52.49;102215.72;4886900;29;20054;-81
2023/12/19 10:09:33;;;;;;;12.98;4.90;;;;;;;10.76;52.83;102214.09;4867688;28;20076;-81
2023/12/19 10:12:05;;;;;;;6.18;3.38;;;;;;;10.81;52.52;102214.66;4873996;29;20051;-80
2023/12/19 10:14:35;;;;;;;7.45;3.35;;;;;;;10.83;52.46;102220.72;4897697;29;20300;-78
2023/12/19 10:17:04;;;;;;;7.93;3.47;;;;;;;10.86;52.21;102194.78;4892627;28;20058;-72
2023/12/19 10:19:34;;;;;;;8.82;3.72;;;;;;;10.96;51.78;102218.13;4903555;28;20043;-80
2023/12/19 10:22:10;;;;;;;10.73;3.80;;;;;;;10.94;51.24;102196.09;4932476;28;20054;-80
2023/12/19 10:24:37;;;;;;;11.48;3.20;;;;;;;10.88;51.58;102190.22;4919026;28;20456;-83
2023/12/19 10:27:14;;;;;;;6.82;3.70;;;;;;;10.91;51.38;102187.38;4891025;29;20052;-81
2023/12/19 10:29:43;;;;;;;8.45;3.42;;;;;;;11.02;50.77;102177.84;4920703;29;20534;-82
2023/12/19 10:32:19;;;;;;;7.20;3.97;;;;;;;11.11;50.24;102185.22;4904968;29;20436;-83
2023/12/19 10:34:55;;;;;;;7.00;4.20;;;;;;;11.00;49.70;102154.03;4920949;29;20039;-82
2023/12/19 10:37:27;;;;;;;8.65;3.97;;;;;;;11.25;49.67;102203.75;4902118;28;20051;-82
2023/12/19 10:40:10;;;;;;;8.00;3.90;;;;;;;11.14;49.65;102177.06;4917200;29;20055;-82
2023/12/19 10:42:38;;;;;;;6.22;3.88;;;;;;;11.25;49.71;102195.78;4914222;29;20102;-82
2023/12/19 10:45:06;;;;;;;12.43;4.80;;;;;;;11.33;50.03;102205.91;4902787;29;20051;-82
2023/12/19 10:47:33;;;;;;;9.73;4.00;;;;;;;11.19;49.40;102164.31;4894126;29;20591;-83
2023/12/19 10:50:00;;;;;;;8.75;4.72;;;;;;;11.43;49.85;102201.69;4883652;29;20560;-81
2023/12/19 10:52:28;;;;;;;7.13;5.10;;;;;;;11.41;50.57;102192.09;4848413;29;20483;-82
2023/12/19 10:55:08;;;;;;;10.18;5.75;;;;;;;11.53;50.17;102196.63;4858095;29;20475;-81
2023/12/19 10:57:58;;;;;;;14.13;5.40;;;;;;;11.46;50.58;102200.63;4852056;29;20568;-82
2023/12/19 11:00:25;;;;;;;17.35;5.90;;;;;;;11.07;50.75;102125.25;4862802;29;20062;-80
2023/12/19 11:03:22;;;;;;;15.43;6.10;;;;;;;11.53;50.42;102200.13;4863696;29;20898;-82
2023/12/19 11:05:51;;;;;;;12.27;6.45;;;;;;;11.36;51.10;102178.25;4880125;29;20294;-82
2023/12/19 11:08:21;;;;;;;14.43;6.95;;;;;;;11.30;51.93;102188.34;4862637;29;20050;-82
2023/12/19 11:11:14;;;;;;;13.32;7.55;;;;;;;11.43;51.95;102187.53;4916003;29;20047;-80
2023/12/19 11:13:42;;;;;;;12.70;7.22;;;;;;;11.40;52.48;102174.44;4897679;29;20052;-81
2023/12/19 11:16:18;;;;;;;14.00;7.65;;;;;;;11.42;53.48;102167.22;4900795;29;20513;-82
2023/12/19 11:18:59;;;;;;;13.88;8.43;;;;;;;11.39;53.90;102162.13;4906147;29;20071;-82
2023/12/19 11:21:41;;;;;;;15.35;8.38;;;;;;;11.41;54.01;102170.81;4910096;29;20051;-82
2023/12/19 11:24:17;;;;;;;15.23;10.05;;;;;;;11.37;54.18;102150.72;4926212;29;20126;-80
2023/12/19 11:27:00;;;;;;;14.40;8.23;;;;;;;11.37;54.51;102150.72;4909944;29;20492;-80
2023/12/19 11:29:47;;;;;;;19.38;8.18;;;;;;;11.21;54.26;102111.88;4901647;29;20289;-81
2023/12/19 11:32:31;;;;;;;14.35;8.52;;;;;;;11.02;54.78;102108.75;4903308;29;20407;-80
2023/12/19 11:35:10;;;;;;;14.77;6.90;;;;;;;11.04;54.11;102089.09;4896857;29;20357;-80